Flight Track Log - Related Links

Times and Time Zones

All times are in EDT time to prevent confusion due to time zone crossing. See the VTS961 flight status page for this flight to view local times or setup timezone preferences in your user account.

Time Position Orientation Groundspeed Altitude Reporting Facility
EDT Latitude Longitude Course Direction KTS MPH feet Rate Location/Type
Fri 06:14:30 PM 60.7833 -161.6167 79° East 210 242 7,200  Level Anchorage Center
Fri 06:15:30 PM 60.8000 -161.4833 76° East 250 288 10,800 3,300 Climbing Anchorage Center
Fri 06:16:30 PM 60.8167 -161.2833 80° East 320 368 13,800 3,050 Climbing Anchorage Center
Fri 06:17:00 PM 60.8606 -160.5337 79° East  Level FlightAware Approximate
Fri 06:17:30 PM 60.8333 -161.1000 79° East 350 403 16,900  Level Anchorage Center
Fri 06:18:00 PM 60.8753 -160.3134 83° East  Level FlightAware Approximate
Fri 06:18:30 PM 60.8500 -160.8667 82° East 390 449 19,500  Level Anchorage Center
Fri 06:19:00 PM 60.8901 -160.0931 79° East  Level FlightAware Approximate
Fri 06:19:30 PM 60.8667 -160.6500 81° East 390 449 22,300  Level Anchorage Center
Fri 06:20:31 PM 60.9000 -160.4333 72° East 420 483 24,200 1,884 Climbing Anchorage Center
Fri 06:21:31 PM 60.9167 -160.1833 82° East 430 495 26,100 1,950 Climbing Anchorage Center
Fri 06:22:31 PM 60.9333 -159.9333 82° East 440 506 28,100 1,950 Climbing Anchorage Center
Fri 06:23:31 PM 60.9667 -159.6833 75° East 440 506 30,000 1,450 Climbing Anchorage Center
Fri 06:24:31 PM 60.9833 -159.4500 82° East 430 495 31,000 500 Climbing Anchorage Center
Fri 06:25:31 PM 61.0167 -159.2000 75° East 440 506 31,000  Level Anchorage Center
Fri 06:26:31 PM 61.0167 -158.9333 90° East 440 506 31,000  Level Anchorage Center
Fri 06:27:32 PM 61.0333 -158.6833 82° East 450 518 31,000  Level Anchorage Center
Fri 06:28:32 PM 61.0500 -158.4167 83° East 460 529 31,000  Level Anchorage Center
Fri 06:29:32 PM 61.0500 -158.1500 90° East 460 529 31,000  Level Anchorage Center
Fri 06:30:32 PM 61.0667 -157.9000 82° East 450 518 31,000  Level Anchorage Center
Fri 06:31:32 PM 61.0667 -157.6333 90° East 460 529 31,000  Level Anchorage Center
Fri 06:32:32 PM 61.0667 -157.3667 90° East 450 518 31,000  Level Anchorage Center
Fri 06:33:32 PM 61.0667 -157.1000 90° East 450 518 31,000  Level Anchorage Center
Fri 06:34:32 PM 61.0667 -156.8500 90° East 460 529 31,000  Level Anchorage Center
Fri 06:36:32 PM 61.0833 -156.3167 86° East 460 529 31,000  Level Anchorage Center
Fri 06:37:32 PM 61.0833 -156.0500 90° East 460 529 31,000  Level Anchorage Center
Fri 06:38:32 PM 61.0833 -155.7833 90° East 450 518 31,000  Level Anchorage Center
Fri 06:39:33 PM 61.1000 -155.4833 83° East 460 529 31,000  Level Anchorage Center
Fri 06:40:33 PM 61.1000 -155.2333 90° East 460 529 31,000  Level Anchorage Center
Fri 06:41:33 PM 61.1167 -154.9667 83° East 450 518 31,000  Level Anchorage Center
Fri 06:42:33 PM 61.1167 -154.7000 90° East 460 529 31,000  Level Anchorage Center
Fri 06:43:33 PM 61.1333 -154.4333 83° East 460 529 31,000  Level Anchorage Center
Fri 06:44:33 PM 61.1333 -154.1667 90° East 460 529 31,000  Level Anchorage Center
Fri 06:45:33 PM 61.1333 -153.9167 90° East 450 518 31,000  Level Anchorage Center
Fri 06:46:33 PM 61.1167 -153.6500 97° East 450 518 31,000  Level Anchorage Center
Fri 06:47:33 PM 61.1167 -153.3833 90° East 460 529 31,000  Level Anchorage Center
Fri 06:48:34 PM 61.1167 -153.1333 90° East 440 506 31,000 -99 Level Anchorage Center
Fri 06:49:34 PM 61.1000 -152.8667 97° East 460 529 30,800 -1,400 Descending Anchorage Center
Fri 06:50:34 PM 61.1000 -152.6000 90° East 470 541 28,200 -3,100 Descending Anchorage Center
Fri 06:51:34 PM 61.0833 -152.3167 97° East 470 541 24,600 -4,000 Descending Anchorage Center
Fri 06:52:34 PM 61.0833 -152.0500 90° East 470 541 20,200 -3,950 Descending Anchorage Center
Fri 06:53:34 PM 61.0833 -151.7833 90° East 440 506 16,700 -3,500 Descending Anchorage Center
Fri 06:55:00 PM 60.9762 -151.5763 137° Southeast  Level FlightAware Approximate
Fri 07:02:00 PM 61.0990 -150.2215 67° East  Level FlightAware Approximate
Fri 07:03:00 PM 61.1436 -150.0308 59° Northeast  Level FlightAware Approximate
Fri 07:04:00 PM 61.1667 -149.9833 270° West  Level FlightAware Approximate
Fri 07:05:00 PM 61.1741 -149.9982 270° West  Level Estimated
Fri 07:06:00 PM 61.1741 -149.9982 270° West  Level Estimated
Fri 07:07:00 PM 61.1741 -149.9982 270° West  Level Estimated
Fri 07:08:00 PM 61.1741 -149.9982 270° West  Level Estimated
Fri 07:09:00 PM 61.1741 -149.9982 270° West  Level Estimated
Fri 07:10:00 PM 61.1741 -149.9982 270° West  Level Estimated
Fri 07:11:00 PM 61.1741 -149.9982 270° West  Level Estimated
Fri 07:12:00 PM 61.1741 -149.9982 270° West  Level Estimated
Fri 07:13:00 PM 61.1741 -149.9982 270° West  Level Estimated
Fri 07:14:00 PM 61.1741 -149.9982 270° West  Level Estimated
Fri 07:15:00 PM 61.1741 -149.9982 270° West  Level Estimated
Fri 07:16:00 PM 61.1741 -149.9982 270° West  Level Estimated
Fri 07:17:00 PM 61.1741 -149.9982 270° West  Level Estimated
Fri 07:18:00 PM 61.1741 -149.9982 270° West  Level Estimated
Fri 07:19:00 PM 61.1741 -149.9982 270° West  Level Estimated
Fri 07:20:00 PM 61.1741 -149.9982 270° West  Level Estimated

Login

Don't have an account? Register now (free) for customized features, flight alerts, and more!